sensor_id;sensor_type;location;lat;lon;timestamp;P1;durP1;ratioP1;P2;durP2;ratioP2
75320;SDS011;63920;52.130;5.584;2022-12-29T00:00:01;2.88;;;2.65;;
75320;SDS011;63920;52.130;5.584;2022-12-29T00:02:28;3.38;;;2.63;;
75320;SDS011;63920;52.130;5.584;2022-12-29T00:04:53;3.03;;;2.78;;
75320;SDS011;63920;52.130;5.584;2022-12-29T00:07:19;3.22;;;2.55;;
75320;SDS011;63920;52.130;5.584;2022-12-29T00:09:44;3.17;;;2.15;;
75320;SDS011;63920;52.130;5.584;2022-12-29T00:12:10;3.03;;;2.33;;
75320;SDS011;63920;52.130;5.584;2022-12-29T00:14:36;3.35;;;2.30;;
75320;SDS011;63920;52.130;5.584;2022-12-29T00:17:20;3.53;;;2.42;;
75320;SDS011;63920;52.130;5.584;2022-12-29T00:19:45;2.40;;;2.20;;
75320;SDS011;63920;52.130;5.584;2022-12-29T00:22:29;2.70;;;2.50;;
75320;SDS011;63920;52.130;5.584;2022-12-29T00:25:13;2.78;;;2.42;;
75320;SDS011;63920;52.130;5.584;2022-12-29T00:27:58;2.40;;;2.10;;
75320;SDS011;63920;52.130;5.584;2022-12-29T00:30:59;2.45;;;2.25;;
75320;SDS011;63920;52.130;5.584;2022-12-29T00:33:43;2.92;;;2.63;;
75320;SDS011;63920;52.130;5.584;2022-12-29T00:36:31;2.40;;;2.20;;
75320;SDS011;63920;52.130;5.584;2022-12-29T00:39:00;4.25;;;2.70;;
75320;SDS011;63920;52.130;5.584;2022-12-29T00:41:48;2.42;;;2.30;;
75320;SDS011;63920;52.130;5.584;2022-12-29T00:44:32;2.63;;;2.42;;
75320;SDS011;63920;52.130;5.584;2022-12-29T00:46:58;4.60;;;2.20;;
75320;SDS011;63920;52.130;5.584;2022-12-29T00:49:28;2.58;;;2.38;;
75320;SDS011;63920;52.130;5.584;2022-12-29T00:52:00;3.00;;;2.42;;
75320;SDS011;63920;52.130;5.584;2022-12-29T00:54:28;2.50;;;2.30;;
75320;SDS011;63920;52.130;5.584;2022-12-29T00:56:55;3.22;;;2.20;;
75320;SDS011;63920;52.130;5.584;2022-12-29T00:59:21;2.63;;;2.42;;
75320;SDS011;63920;52.130;5.584;2022-12-29T01:01:49;2.22;;;2.03;;
75320;SDS011;63920;52.130;5.584;2022-12-29T01:04:15;3.70;;;2.28;;
75320;SDS011;63920;52.130;5.584;2022-12-29T01:06:41;4.68;;;2.08;;
75320;SDS011;63920;52.130;5.584;2022-12-29T01:09:07;2.05;;;1.90;;
75320;SDS011;63920;52.130;5.584;2022-12-29T01:11:52;2.17;;;1.80;;
75320;SDS011;63920;52.130;5.584;2022-12-29T01:14:18;2.28;;;1.75;;
75320;SDS011;63920;52.130;5.584;2022-12-29T01:16:44;1.85;;;1.42;;
75320;SDS011;63920;52.130;5.584;2022-12-29T01:19:10;2.22;;;1.52;;
75320;SDS011;63920;52.130;5.584;2022-12-29T01:21:36;3.08;;;1.60;;
75320;SDS011;63920;52.130;5.584;2022-12-29T01:24:02;1.60;;;1.30;;
75320;SDS011;63920;52.130;5.584;2022-12-29T01:26:28;1.67;;;1.45;;
75320;SDS011;63920;52.130;5.584;2022-12-29T01:28:54;2.85;;;1.50;;
75320;SDS011;63920;52.130;5.584;2022-12-29T01:31:19;1.30;;;1.20;;
75320;SDS011;63920;52.130;5.584;2022-12-29T01:33:46;1.38;;;1.25;;
75320;SDS011;63920;52.130;5.584;2022-12-29T01:36:12;1.73;;;1.38;;
75320;SDS011;63920;52.130;5.584;2022-12-29T01:38:40;2.13;;;1.92;;
75320;SDS011;63920;52.130;5.584;2022-12-29T01:41:06;1.92;;;1.38;;
75320;SDS011;63920;52.130;5.584;2022-12-29T01:43:47;1.42;;;1.33;;
75320;SDS011;63920;52.130;5.584;2022-12-29T01:46:25;1.95;;;1.48;;
75320;SDS011;63920;52.130;5.584;2022-12-29T01:48:57;2.17;;;1.50;;
75320;SDS011;63920;52.130;5.584;2022-12-29T01:51:24;1.40;;;1.30;;
75320;SDS011;63920;52.130;5.584;2022-12-29T01:53:50;1.98;;;1.63;;
75320;SDS011;63920;52.130;5.584;2022-12-29T01:56:18;2.88;;;1.52;;
75320;SDS011;63920;52.130;5.584;2022-12-29T01:58:46;2.58;;;1.58;;
75320;SDS011;63920;52.130;5.584;2022-12-29T02:01:16;3.40;;;1.85;;
75320;SDS011;63920;52.130;5.584;2022-12-29T02:03:44;2.03;;;1.92;;
75320;SDS011;63920;52.130;5.584;2022-12-29T02:06:17;2.72;;;1.70;;
75320;SDS011;63920;52.130;5.584;2022-12-29T02:08:52;1.70;;;1.60;;
75320;SDS011;63920;52.130;5.584;2022-12-29T02:11:19;2.47;;;1.60;;
75320;SDS011;63920;52.130;5.584;2022-12-29T02:13:48;1.80;;;1.40;;
75320;SDS011;63920;52.130;5.584;2022-12-29T02:30:38;1.70;;;1.60;;
75320;SDS011;63920;52.130;5.584;2022-12-29T02:33:20;4.53;;;1.67;;
75320;SDS011;63920;52.130;5.584;2022-12-29T02:35:58;3.08;;;1.98;;
75320;SDS011;63920;52.130;5.584;2022-12-29T02:43:48;1.50;;;1.40;;
75320;SDS011;63920;52.130;5.584;2022-12-29T02:46:28;3.72;;;1.45;;
75320;SDS011;63920;52.130;5.584;2022-12-29T02:49:09;2.70;;;1.27;;
75320;SDS011;63920;52.130;5.584;2022-12-29T02:52:11;2.17;;;1.00;;
75320;SDS011;63920;52.130;5.584;2022-12-29T02:54:41;3.65;;;1.20;;
75320;SDS011;63920;52.130;5.584;2022-12-29T02:59:44;3.08;;;1.00;;
75320;SDS011;63920;52.130;5.584;2022-12-29T03:21:38;2.65;;;1.20;;
75320;SDS011;63920;52.130;5.584;2022-12-29T03:24:27;2.25;;;1.20;;
75320;SDS011;63920;52.130;5.584;2022-12-29T03:26:56;3.83;;;1.42;;
75320;SDS011;63920;52.130;5.584;2022-12-29T03:29:26;1.83;;;1.23;;
75320;SDS011;63920;52.130;5.584;2022-12-29T03:31:56;2.88;;;1.50;;
75320;SDS011;63920;52.130;5.584;2022-12-29T03:34:23;3.60;;;1.30;;
75320;SDS011;63920;52.130;5.584;2022-12-29T03:36:54;2.53;;;1.60;;
75320;SDS011;63920;52.130;5.584;2022-12-29T03:39:27;4.00;;;1.42;;
75320;SDS011;63920;52.130;5.584;2022-12-29T03:42:01;1.73;;;1.10;;
75320;SDS011;63920;52.130;5.584;2022-12-29T03:44:34;2.47;;;1.10;;
75320;SDS011;63920;52.130;5.584;2022-12-29T03:47:01;4.40;;;1.58;;
75320;SDS011;63920;52.130;5.584;2022-12-29T03:49:27;3.28;;;1.50;;
75320;SDS011;63920;52.130;5.584;2022-12-29T03:51:53;2.65;;;1.13;;
75320;SDS011;63920;52.130;5.584;2022-12-29T03:54:19;3.80;;;1.42;;
75320;SDS011;63920;52.130;5.584;2022-12-29T03:56:44;1.52;;;0.95;;
75320;SDS011;63920;52.130;5.584;2022-12-29T03:59:10;4.72;;;1.50;;
75320;SDS011;63920;52.130;5.584;2022-12-29T04:01:35;3.47;;;0.90;;
75320;SDS011;63920;52.130;5.584;2022-12-29T04:04:01;2.17;;;1.02;;
75320;SDS011;63920;52.130;5.584;2022-12-29T04:06:26;1.88;;;1.25;;
75320;SDS011;63920;52.130;5.584;2022-12-29T04:08:52;2.90;;;1.15;;
75320;SDS011;63920;52.130;5.584;2022-12-29T04:11:18;2.42;;;1.13;;
75320;SDS011;63920;52.130;5.584;2022-12-29T04:13:43;2.92;;;1.10;;
75320;SDS011;63920;52.130;5.584;2022-12-29T04:16:09;2.10;;;1.05;;
75320;SDS011;63920;52.130;5.584;2022-12-29T04:18:34;3.35;;;1.05;;
75320;SDS011;63920;52.130;5.584;2022-12-29T04:21:00;3.85;;;1.23;;
75320;SDS011;63920;52.130;5.584;2022-12-29T04:23:27;1.88;;;1.10;;
75320;SDS011;63920;52.130;5.584;2022-12-29T04:25:54;4.35;;;1.38;;
75320;SDS011;63920;52.130;5.584;2022-12-29T04:28:19;4.03;;;1.65;;
75320;SDS011;63920;52.130;5.584;2022-12-29T04:30:45;5.05;;;1.20;;
75320;SDS011;63920;52.130;5.584;2022-12-29T04:33:11;8.52;;;1.42;;
75320;SDS011;63920;52.130;5.584;2022-12-29T04:35:37;4.93;;;1.55;;
75320;SDS011;63920;52.130;5.584;2022-12-29T04:38:03;4.97;;;1.15;;
75320;SDS011;63920;52.130;5.584;2022-12-29T04:40:28;3.35;;;1.55;;
75320;SDS011;63920;52.130;5.584;2022-12-29T04:42:54;6.47;;;1.73;;
75320;SDS011;63920;52.130;5.584;2022-12-29T04:45:20;6.30;;;1.55;;
75320;SDS011;63920;52.130;5.584;2022-12-29T04:47:45;5.15;;;1.40;;
75320;SDS011;63920;52.130;5.584;2022-12-29T04:50:11;6.25;;;1.23;;
75320;SDS011;63920;52.130;5.584;2022-12-29T04:52:37;5.60;;;1.58;;
75320;SDS011;63920;52.130;5.584;2022-12-29T04:55:03;5.90;;;1.58;;
75320;SDS011;63920;52.130;5.584;2022-12-29T04:57:29;4.43;;;1.20;;
75320;SDS011;63920;52.130;5.584;2022-12-29T04:59:55;5.80;;;2.47;;
75320;SDS011;63920;52.130;5.584;2022-12-29T05:02:20;6.28;;;1.70;;
75320;SDS011;63920;52.130;5.584;2022-12-29T05:04:46;9.82;;;1.83;;
75320;SDS011;63920;52.130;5.584;2022-12-29T05:07:12;12.00;;;1.80;;
75320;SDS011;63920;52.130;5.584;2022-12-29T05:09:37;6.65;;;1.98;;
75320;SDS011;63920;52.130;5.584;2022-12-29T05:12:03;11.27;;;2.10;;
75320;SDS011;63920;52.130;5.584;2022-12-29T05:14:29;6.30;;;1.40;;
75320;SDS011;63920;52.130;5.584;2022-12-29T05:16:54;9.00;;;2.22;;
75320;SDS011;63920;52.130;5.584;2022-12-29T05:19:20;8.43;;;1.88;;
75320;SDS011;63920;52.130;5.584;2022-12-29T05:21:45;6.43;;;2.00;;
75320;SDS011;63920;52.130;5.584;2022-12-29T05:24:11;6.13;;;1.48;;
75320;SDS011;63920;52.130;5.584;2022-12-29T05:26:37;9.60;;;1.90;;
75320;SDS011;63920;52.130;5.584;2022-12-29T05:29:03;6.53;;;1.80;;
75320;SDS011;63920;52.130;5.584;2022-12-29T05:31:28;4.95;;;1.30;;
75320;SDS011;63920;52.130;5.584;2022-12-29T05:33:54;11.40;;;1.90;;
75320;SDS011;63920;52.130;5.584;2022-12-29T05:36:20;8.00;;;1.83;;
75320;SDS011;63920;52.130;5.584;2022-12-29T05:38:45;7.47;;;1.58;;
75320;SDS011;63920;52.130;5.584;2022-12-29T05:41:11;9.70;;;1.65;;
75320;SDS011;63920;52.130;5.584;2022-12-29T05:43:36;8.57;;;1.85;;
75320;SDS011;63920;52.130;5.584;2022-12-29T05:46:02;10.82;;;1.77;;
75320;SDS011;63920;52.130;5.584;2022-12-29T05:48:28;9.63;;;1.60;;
75320;SDS011;63920;52.130;5.584;2022-12-29T05:50:54;9.70;;;2.03;;
75320;SDS011;63920;52.130;5.584;2022-12-29T05:53:19;10.07;;;1.90;;
75320;SDS011;63920;52.130;5.584;2022-12-29T05:55:48;11.75;;;1.95;;
75320;SDS011;63920;52.130;5.584;2022-12-29T05:58:14;14.50;;;1.90;;
75320;SDS011;63920;52.130;5.584;2022-12-29T06:00:40;8.35;;;1.60;;
75320;SDS011;63920;52.130;5.584;2022-12-29T06:03:06;7.15;;;1.35;;
75320;SDS011;63920;52.130;5.584;2022-12-29T06:05:32;6.00;;;1.58;;
75320;SDS011;63920;52.130;5.584;2022-12-29T06:07:57;8.35;;;2.20;;
75320;SDS011;63920;52.130;5.584;2022-12-29T06:10:23;8.75;;;1.80;;
75320;SDS011;63920;52.130;5.584;2022-12-29T06:12:49;11.20;;;1.80;;
75320;SDS011;63920;52.130;5.584;2022-12-29T06:15:15;6.80;;;1.83;;
75320;SDS011;63920;52.130;5.584;2022-12-29T06:17:41;11.63;;;2.00;;
75320;SDS011;63920;52.130;5.584;2022-12-29T06:20:07;5.18;;;1.67;;
75320;SDS011;63920;52.130;5.584;2022-12-29T06:22:34;14.32;;;2.25;;
75320;SDS011;63920;52.130;5.584;2022-12-29T06:25:00;7.32;;;1.67;;
75320;SDS011;63920;52.130;5.584;2022-12-29T06:27:26;9.75;;;2.05;;
75320;SDS011;63920;52.130;5.584;2022-12-29T06:29:52;10.15;;;1.98;;
75320;SDS011;63920;52.130;5.584;2022-12-29T06:32:18;5.03;;;1.90;;
75320;SDS011;63920;52.130;5.584;2022-12-29T06:34:43;10.40;;;1.75;;
75320;SDS011;63920;52.130;5.584;2022-12-29T06:37:09;14.63;;;2.10;;
75320;SDS011;63920;52.130;5.584;2022-12-29T06:39:36;9.90;;;1.80;;
75320;SDS011;63920;52.130;5.584;2022-12-29T06:42:01;11.55;;;2.05;;
75320;SDS011;63920;52.130;5.584;2022-12-29T06:44:27;10.05;;;2.10;;
75320;SDS011;63920;52.130;5.584;2022-12-29T06:46:53;14.63;;;2.00;;
75320;SDS011;63920;52.130;5.584;2022-12-29T06:49:19;16.98;;;2.47;;
75320;SDS011;63920;52.130;5.584;2022-12-29T06:51:44;11.70;;;2.03;;
75320;SDS011;63920;52.130;5.584;2022-12-29T06:54:10;9.02;;;2.88;;
75320;SDS011;63920;52.130;5.584;2022-12-29T06:56:36;9.82;;;2.13;;
75320;SDS011;63920;52.130;5.584;2022-12-29T06:59:01;10.85;;;1.95;;
75320;SDS011;63920;52.130;5.584;2022-12-29T07:01:28;7.80;;;1.77;;
75320;SDS011;63920;52.130;5.584;2022-12-29T07:03:53;9.35;;;2.22;;
75320;SDS011;63920;52.130;5.584;2022-12-29T07:06:19;8.80;;;1.75;;
75320;SDS011;63920;52.130;5.584;2022-12-29T07:08:46;9.15;;;1.85;;
75320;SDS011;63920;52.130;5.584;2022-12-29T07:11:11;9.07;;;1.98;;
75320;SDS011;63920;52.130;5.584;2022-12-29T07:13:37;9.50;;;1.85;;
75320;SDS011;63920;52.130;5.584;2022-12-29T07:16:08;11.18;;;2.33;;
75320;SDS011;63920;52.130;5.584;2022-12-29T07:18:35;11.27;;;2.42;;
75320;SDS011;63920;52.130;5.584;2022-12-29T07:21:01;11.77;;;2.25;;
75320;SDS011;63920;52.130;5.584;2022-12-29T07:23:27;14.30;;;2.17;;
75320;SDS011;63920;52.130;5.584;2022-12-29T07:26:02;10.05;;;1.67;;
75320;SDS011;63920;52.130;5.584;2022-12-29T07:28:29;9.32;;;2.15;;
75320;SDS011;63920;52.130;5.584;2022-12-29T07:30:55;8.25;;;1.70;;
75320;SDS011;63920;52.130;5.584;2022-12-29T07:33:21;16.45;;;2.20;;
75320;SDS011;63920;52.130;5.584;2022-12-29T07:35:46;11.15;;;1.73;;
75320;SDS011;63920;52.130;5.584;2022-12-29T07:38:12;6.20;;;1.90;;
75320;SDS011;63920;52.130;5.584;2022-12-29T07:40:37;12.27;;;2.65;;
75320;SDS011;63920;52.130;5.584;2022-12-29T07:43:03;10.57;;;2.55;;
75320;SDS011;63920;52.130;5.584;2022-12-29T07:45:29;6.65;;;1.65;;
75320;SDS011;63920;52.130;5.584;2022-12-29T07:47:54;6.70;;;2.03;;
75320;SDS011;63920;52.130;5.584;2022-12-29T07:50:20;10.15;;;2.70;;
75320;SDS011;63920;52.130;5.584;2022-12-29T07:52:46;8.55;;;2.08;;
75320;SDS011;63920;52.130;5.584;2022-12-29T07:55:12;4.85;;;1.88;;
75320;SDS011;63920;52.130;5.584;2022-12-29T07:57:42;10.45;;;2.10;;
75320;SDS011;63920;52.130;5.584;2022-12-29T08:00:08;7.68;;;1.88;;
75320;SDS011;63920;52.130;5.584;2022-12-29T08:02:34;11.55;;;2.58;;
75320;SDS011;63920;52.130;5.584;2022-12-29T08:05:00;9.20;;;2.53;;
75320;SDS011;63920;52.130;5.584;2022-12-29T08:07:26;7.43;;;1.90;;
75320;SDS011;63920;52.130;5.584;2022-12-29T08:09:51;6.88;;;2.40;;
75320;SDS011;63920;52.130;5.584;2022-12-29T08:12:17;8.18;;;2.38;;
75320;SDS011;63920;52.130;5.584;2022-12-29T08:14:43;13.07;;;2.30;;
75320;SDS011;63920;52.130;5.584;2022-12-29T08:17:08;12.80;;;2.22;;
75320;SDS011;63920;52.130;5.584;2022-12-29T08:19:35;7.28;;;2.45;;
75320;SDS011;63920;52.130;5.584;2022-12-29T08:22:00;10.05;;;2.75;;
75320;SDS011;63920;52.130;5.584;2022-12-29T08:24:26;12.63;;;2.35;;
75320;SDS011;63920;52.130;5.584;2022-12-29T08:26:52;10.90;;;2.15;;
75320;SDS011;63920;52.130;5.584;2022-12-29T08:29:17;13.05;;;3.92;;
75320;SDS011;63920;52.130;5.584;2022-12-29T08:31:44;17.30;;;5.63;;
75320;SDS011;63920;52.130;5.584;2022-12-29T08:34:10;11.63;;;2.63;;
75320;SDS011;63920;52.130;5.584;2022-12-29T08:36:36;15.13;;;2.88;;
75320;SDS011;63920;52.130;5.584;2022-12-29T08:39:01;11.55;;;3.90;;
75320;SDS011;63920;52.130;5.584;2022-12-29T08:41:27;13.43;;;3.47;;
75320;SDS011;63920;52.130;5.584;2022-12-29T08:43:53;14.02;;;3.55;;
75320;SDS011;63920;52.130;5.584;2022-12-29T08:46:21;14.75;;;3.15;;
75320;SDS011;63920;52.130;5.584;2022-12-29T08:48:47;11.05;;;3.28;;
75320;SDS011;63920;52.130;5.584;2022-12-29T08:51:13;14.20;;;2.85;;
75320;SDS011;63920;52.130;5.584;2022-12-29T08:53:38;10.45;;;2.35;;
75320;SDS011;63920;52.130;5.584;2022-12-29T08:56:04;11.88;;;3.15;;
75320;SDS011;63920;52.130;5.584;2022-12-29T08:58:30;8.45;;;2.40;;
75320;SDS011;63920;52.130;5.584;2022-12-29T09:00:56;12.65;;;2.22;;
75320;SDS011;63920;52.130;5.584;2022-12-29T09:03:23;10.18;;;2.63;;
75320;SDS011;63920;52.130;5.584;2022-12-29T09:05:50;12.30;;;2.58;;
75320;SDS011;63920;52.130;5.584;2022-12-29T09:08:17;12.27;;;2.63;;
75320;SDS011;63920;52.130;5.584;2022-12-29T09:10:43;11.27;;;2.75;;
75320;SDS011;63920;52.130;5.584;2022-12-29T09:13:09;9.45;;;2.08;;
75320;SDS011;63920;52.130;5.584;2022-12-29T09:15:35;10.50;;;2.20;;
75320;SDS011;63920;52.130;5.584;2022-12-29T09:18:02;9.25;;;2.35;;
75320;SDS011;63920;52.130;5.584;2022-12-29T09:20:27;11.73;;;2.17;;
75320;SDS011;63920;52.130;5.584;2022-12-29T09:22:53;7.60;;;2.38;;
75320;SDS011;63920;52.130;5.584;2022-12-29T09:25:19;7.25;;;2.13;;
75320;SDS011;63920;52.130;5.584;2022-12-29T09:27:45;10.93;;;2.75;;
75320;SDS011;63920;52.130;5.584;2022-12-29T09:30:12;9.77;;;2.47;;
75320;SDS011;63920;52.130;5.584;2022-12-29T09:32:39;14.05;;;2.60;;
75320;SDS011;63920;52.130;5.584;2022-12-29T09:35:05;14.15;;;2.70;;
75320;SDS011;63920;52.130;5.584;2022-12-29T09:37:31;12.85;;;2.90;;
75320;SDS011;63920;52.130;5.584;2022-12-29T09:39:57;11.10;;;2.25;;
75320;SDS011;63920;52.130;5.584;2022-12-29T09:45:24;12.80;;;3.78;;
75320;SDS011;63920;52.130;5.584;2022-12-29T09:48:03;13.82;;;2.75;;
75320;SDS011;63920;52.130;5.584;2022-12-29T09:50:30;10.55;;;2.55;;
75320;SDS011;63920;52.130;5.584;2022-12-29T09:53:02;12.48;;;3.75;;
75320;SDS011;63920;52.130;5.584;2022-12-29T09:55:36;12.40;;;2.22;;
75320;SDS011;63920;52.130;5.584;2022-12-29T09:58:06;14.68;;;3.40;;
75320;SDS011;63920;52.130;5.584;2022-12-29T10:00:49;13.02;;;3.25;;
75320;SDS011;63920;52.130;5.584;2022-12-29T10:03:20;7.45;;;1.95;;
75320;SDS011;63920;52.130;5.584;2022-12-29T10:08:52;9.10;;;2.90;;
75320;SDS011;63920;52.130;5.584;2022-12-29T10:14:20;10.40;;;2.65;;
75320;SDS011;63920;52.130;5.584;2022-12-29T10:19:48;7.93;;;2.30;;
75320;SDS011;63920;52.130;5.584;2022-12-29T10:22:27;9.30;;;2.65;;
75320;SDS011;63920;52.130;5.584;2022-12-29T10:25:02;14.80;;;2.63;;
75320;SDS011;63920;52.130;5.584;2022-12-29T10:27:42;9.75;;;2.40;;
75320;SDS011;63920;52.130;5.584;2022-12-29T10:30:12;10.38;;;3.15;;
75320;SDS011;63920;52.130;5.584;2022-12-29T10:32:39;8.13;;;2.55;;
75320;SDS011;63920;52.130;5.584;2022-12-29T10:37:41;9.63;;;2.10;;
75320;SDS011;63920;52.130;5.584;2022-12-29T10:40:36;9.55;;;2.05;;
75320;SDS011;63920;52.130;5.584;2022-12-29T10:43:20;7.63;;;2.33;;
75320;SDS011;63920;52.130;5.584;2022-12-29T10:45:47;10.23;;;2.47;;
75320;SDS011;63920;52.130;5.584;2022-12-29T10:48:20;9.55;;;2.50;;
75320;SDS011;63920;52.130;5.584;2022-12-29T10:50:49;12.65;;;2.83;;
75320;SDS011;63920;52.130;5.584;2022-12-29T10:53:22;10.02;;;3.88;;
75320;SDS011;63920;52.130;5.584;2022-12-29T10:55:50;9.60;;;2.97;;
75320;SDS011;63920;52.130;5.584;2022-12-29T10:58:16;12.13;;;2.78;;
75320;SDS011;63920;52.130;5.584;2022-12-29T11:00:43;10.45;;;4.00;;
75320;SDS011;63920;52.130;5.584;2022-12-29T11:03:22;9.07;;;3.03;;
75320;SDS011;63920;52.130;5.584;2022-12-29T11:08:38;9.73;;;3.00;;
75320;SDS011;63920;52.130;5.584;2022-12-29T11:11:10;14.68;;;3.25;;
75320;SDS011;63920;52.130;5.584;2022-12-29T11:13:55;15.02;;;4.32;;
75320;SDS011;63920;52.130;5.584;2022-12-29T11:16:27;23.50;;;4.57;;
75320;SDS011;63920;52.130;5.584;2022-12-29T11:18:55;13.90;;;3.95;;
75320;SDS011;63920;52.130;5.584;2022-12-29T11:24:05;19.35;;;4.53;;
75320;SDS011;63920;52.130;5.584;2022-12-29T11:26:43;17.85;;;4.25;;
75320;SDS011;63920;52.130;5.584;2022-12-29T11:31:48;14.57;;;4.13;;
75320;SDS011;63920;52.130;5.584;2022-12-29T11:34:16;14.98;;;3.42;;
75320;SDS011;63920;52.130;5.584;2022-12-29T11:36:58;18.25;;;4.47;;
75320;SDS011;63920;52.130;5.584;2022-12-29T11:39:32;26.40;;;4.75;;
75320;SDS011;63920;52.130;5.584;2022-12-29T11:42:01;18.80;;;4.43;;
75320;SDS011;63920;52.130;5.584;2022-12-29T11:44:28;19.27;;;4.22;;
75320;SDS011;63920;52.130;5.584;2022-12-29T11:46:58;12.32;;;4.20;;
75320;SDS011;63920;52.130;5.584;2022-12-29T11:49:24;20.67;;;4.38;;
75320;SDS011;63920;52.130;5.584;2022-12-29T11:51:52;16.42;;;4.25;;
75320;SDS011;63920;52.130;5.584;2022-12-29T11:54:25;19.00;;;5.32;;
75320;SDS011;63920;52.130;5.584;2022-12-29T11:56:55;18.60;;;4.25;;
75320;SDS011;63920;52.130;5.584;2022-12-29T12:01:56;15.75;;;4.07;;
75320;SDS011;63920;52.130;5.584;2022-12-29T12:04:26;15.70;;;3.65;;
75320;SDS011;63920;52.130;5.584;2022-12-29T12:07:00;15.68;;;4.32;;
75320;SDS011;63920;52.130;5.584;2022-12-29T12:09:58;19.17;;;4.40;;
75320;SDS011;63920;52.130;5.584;2022-12-29T12:12:30;13.73;;;3.08;;
75320;SDS011;63920;52.130;5.584;2022-12-29T12:15:00;16.08;;;3.40;;
75320;SDS011;63920;52.130;5.584;2022-12-29T12:25:38;13.48;;;3.15;;
75320;SDS011;63920;52.130;5.584;2022-12-29T12:28:20;20.65;;;3.30;;
75320;SDS011;63920;52.130;5.584;2022-12-29T12:31:26;19.10;;;4.25;;
75320;SDS011;63920;52.130;5.584;2022-12-29T12:34:16;24.45;;;3.90;;
75320;SDS011;63920;52.130;5.584;2022-12-29T12:39:33;17.73;;;3.42;;
75320;SDS011;63920;52.130;5.584;2022-12-29T12:50:43;18.55;;;5.22;;
75320;SDS011;63920;52.130;5.584;2022-12-29T12:59:11;18.63;;;4.28;;
75320;SDS011;63920;52.130;5.584;2022-12-29T13:02:03;15.95;;;3.75;;
75320;SDS011;63920;52.130;5.584;2022-12-29T13:07:30;14.57;;;3.53;;
75320;SDS011;63920;52.130;5.584;2022-12-29T13:21:35;23.83;;;4.13;;
75320;SDS011;63920;52.130;5.584;2022-12-29T13:27:06;14.32;;;4.38;;
75320;SDS011;63920;52.130;5.584;2022-12-29T13:32:35;16.75;;;4.57;;
75320;SDS011;63920;52.130;5.584;2022-12-29T13:37:50;19.98;;;3.97;;
75320;SDS011;63920;52.130;5.584;2022-12-29T13:40:21;11.57;;;3.40;;
75320;SDS011;63920;52.130;5.584;2022-12-29T13:42:50;13.75;;;3.60;;
75320;SDS011;63920;52.130;5.584;2022-12-29T13:45:22;19.38;;;4.07;;
75320;SDS011;63920;52.130;5.584;2022-12-29T13:50:28;19.95;;;5.13;;
75320;SDS011;63920;52.130;5.584;2022-12-29T13:53:04;20.05;;;4.50;;
75320;SDS011;63920;52.130;5.584;2022-12-29T13:55:40;16.90;;;5.28;;
75320;SDS011;63920;52.130;5.584;2022-12-29T13:58:31;17.90;;;4.60;;
75320;SDS011;63920;52.130;5.584;2022-12-29T14:01:03;20.90;;;4.82;;
75320;SDS011;63920;52.130;5.584;2022-12-29T14:03:46;19.98;;;4.75;;
75320;SDS011;63920;52.130;5.584;2022-12-29T14:06:18;20.08;;;4.70;;
75320;SDS011;63920;52.130;5.584;2022-12-29T14:08:50;20.08;;;4.35;;
75320;SDS011;63920;52.130;5.584;2022-12-29T14:11:22;12.38;;;4.20;;
75320;SDS011;63920;52.130;5.584;2022-12-29T14:13:54;16.48;;;4.45;;
75320;SDS011;63920;52.130;5.584;2022-12-29T14:16:27;18.92;;;4.65;;
75320;SDS011;63920;52.130;5.584;2022-12-29T14:18:56;15.73;;;4.82;;
75320;SDS011;63920;52.130;5.584;2022-12-29T14:21:30;17.38;;;4.32;;
75320;SDS011;63920;52.130;5.584;2022-12-29T14:26:57;10.88;;;3.40;;
75320;SDS011;63920;52.130;5.584;2022-12-29T14:31:49;10.77;;;3.97;;
75320;SDS011;63920;52.130;5.584;2022-12-29T14:34:16;10.80;;;5.30;;
75320;SDS011;63920;52.130;5.584;2022-12-29T14:36:59;6.72;;;2.72;;
75320;SDS011;63920;52.130;5.584;2022-12-29T14:44:47;4.90;;;1.67;;
75320;SDS011;63920;52.130;5.584;2022-12-29T14:47:34;3.03;;;1.30;;
75320;SDS011;63920;52.130;5.584;2022-12-29T14:52:43;3.90;;;1.35;;
75320;SDS011;63920;52.130;5.584;2022-12-29T14:57:43;2.47;;;1.30;;
75320;SDS011;63920;52.130;5.584;2022-12-29T15:02:49;3.33;;;2.00;;
75320;SDS011;63920;52.130;5.584;2022-12-29T15:05:29;6.50;;;1.48;;
75320;SDS011;63920;52.130;5.584;2022-12-29T15:08:17;4.18;;;1.40;;
75320;SDS011;63920;52.130;5.584;2022-12-29T15:10:49;6.18;;;2.20;;
75320;SDS011;63920;52.130;5.584;2022-12-29T15:13:38;12.88;;;3.00;;
75320;SDS011;63920;52.130;5.584;2022-12-29T15:16:20;9.48;;;3.00;;
75320;SDS011;63920;52.130;5.584;2022-12-29T15:18:50;9.73;;;2.72;;
75320;SDS011;63920;52.130;5.584;2022-12-29T15:21:17;14.65;;;3.28;;
75320;SDS011;63920;52.130;5.584;2022-12-29T15:23:49;10.50;;;2.97;;
75320;SDS011;63920;52.130;5.584;2022-12-29T15:26:15;10.95;;;2.90;;
75320;SDS011;63920;52.130;5.584;2022-12-29T15:28:47;15.63;;;4.47;;
75320;SDS011;63920;52.130;5.584;2022-12-29T15:31:14;9.70;;;3.83;;
75320;SDS011;63920;52.130;5.584;2022-12-29T15:33:46;10.15;;;3.60;;
75320;SDS011;63920;52.130;5.584;2022-12-29T15:36:14;10.98;;;4.43;;
75320;SDS011;63920;52.130;5.584;2022-12-29T15:38:47;12.63;;;3.83;;
75320;SDS011;63920;52.130;5.584;2022-12-29T15:44:23;10.45;;;3.70;;
75320;SDS011;63920;52.130;5.584;2022-12-29T15:46:56;13.25;;;4.40;;
75320;SDS011;63920;52.130;5.584;2022-12-29T15:49:21;10.77;;;4.13;;
75320;SDS011;63920;52.130;5.584;2022-12-29T15:51:48;10.95;;;3.20;;
75320;SDS011;63920;52.130;5.584;2022-12-29T15:54:18;7.85;;;3.17;;
75320;SDS011;63920;52.130;5.584;2022-12-29T15:56:46;12.20;;;3.58;;
75320;SDS011;63920;52.130;5.584;2022-12-29T15:59:47;12.55;;;3.38;;
75320;SDS011;63920;52.130;5.584;2022-12-29T16:02:10;10.15;;;4.25;;
75320;SDS011;63920;52.130;5.584;2022-12-29T16:04:35;7.03;;;2.80;;
75320;SDS011;63920;52.130;5.584;2022-12-29T16:07:05;9.88;;;2.70;;
75320;SDS011;63920;52.130;5.584;2022-12-29T16:09:46;10.98;;;3.10;;
75320;SDS011;63920;52.130;5.584;2022-12-29T16:12:19;10.32;;;2.72;;
75320;SDS011;63920;52.130;5.584;2022-12-29T16:14:52;9.68;;;3.58;;
75320;SDS011;63920;52.130;5.584;2022-12-29T16:17:22;13.57;;;3.10;;
75320;SDS011;63920;52.130;5.584;2022-12-29T16:19:56;13.52;;;4.22;;
75320;SDS011;63920;52.130;5.584;2022-12-29T16:22:32;9.40;;;3.25;;
75320;SDS011;63920;52.130;5.584;2022-12-29T16:25:15;11.55;;;4.57;;
75320;SDS011;63920;52.130;5.584;2022-12-29T16:27:47;11.57;;;2.80;;
75320;SDS011;63920;52.130;5.584;2022-12-29T16:30:23;6.85;;;2.58;;
75320;SDS011;63920;52.130;5.584;2022-12-29T16:32:56;9.18;;;2.50;;
75320;SDS011;63920;52.130;5.584;2022-12-29T16:35:24;10.45;;;2.70;;
75320;SDS011;63920;52.130;5.584;2022-12-29T16:38:36;10.30;;;3.15;;
75320;SDS011;63920;52.130;5.584;2022-12-29T16:40:38;9.52;;;2.67;;
75320;SDS011;63920;52.130;5.584;2022-12-29T16:43:19;12.20;;;5.53;;
75320;SDS011;63920;52.130;5.584;2022-12-29T16:50:42;19.95;;;9.15;;
75320;SDS011;63920;52.130;5.584;2022-12-29T16:55:52;9.98;;;2.92;;
75320;SDS011;63920;52.130;5.584;2022-12-29T16:58:20;9.95;;;2.55;;
75320;SDS011;63920;52.130;5.584;2022-12-29T17:00:48;9.45;;;3.33;;
75320;SDS011;63920;52.130;5.584;2022-12-29T17:03:16;12.68;;;2.80;;
75320;SDS011;63920;52.130;5.584;2022-12-29T17:05:42;14.40;;;3.13;;
75320;SDS011;63920;52.130;5.584;2022-12-29T17:08:17;8.35;;;2.08;;
75320;SDS011;63920;52.130;5.584;2022-12-29T17:10:48;8.23;;;1.90;;
75320;SDS011;63920;52.130;5.584;2022-12-29T17:13:37;7.93;;;2.13;;
75320;SDS011;63920;52.130;5.584;2022-12-29T17:16:04;8.93;;;1.65;;
75320;SDS011;63920;52.130;5.584;2022-12-29T17:18:32;7.40;;;1.65;;
75320;SDS011;63920;52.130;5.584;2022-12-29T17:20:58;6.25;;;1.88;;
75320;SDS011;63920;52.130;5.584;2022-12-29T17:23:23;6.57;;;2.10;;